createdAt,value
2023-01-26T00:00:06.721Z,22.84
2023-01-26T00:00:36.793Z,22.84
2023-01-26T00:01:06.881Z,22.85
2023-01-26T00:01:36.969Z,22.84
2023-01-26T00:02:07.052Z,22.82
2023-01-26T00:02:37.220Z,22.81
2023-01-26T00:03:07.205Z,22.88
2023-01-26T00:03:37.367Z,22.85
2023-01-26T00:04:07.426Z,22.82
2023-01-26T00:04:37.410Z,22.87
2023-01-26T00:05:07.484Z,22.85
2023-01-26T00:05:37.573Z,22.84
2023-01-26T00:06:07.659Z,22.82
2023-01-26T00:06:37.738Z,22.81
2023-01-26T00:07:07.816Z,22.84
2023-01-26T00:07:37.894Z,22.82
2023-01-26T00:08:08.011Z,22.85
2023-01-26T00:08:38.110Z,22.87
2023-01-26T00:09:08.168Z,22.85
2023-01-26T00:09:38.255Z,22.88
2023-01-26T00:10:08.568Z,22.87
2023-01-26T00:10:38.373Z,22.87
2023-01-26T00:11:08.439Z,22.85
2023-01-26T00:11:38.467Z,22.88
2023-01-26T00:12:08.517Z,22.87
2023-01-26T00:12:38.545Z,22.85
2023-01-26T00:13:08.607Z,22.87
2023-01-26T00:13:38.631Z,22.84
2023-01-26T00:14:08.666Z,22.85
2023-01-26T00:14:38.695Z,22.85
2023-01-26T00:15:08.747Z,22.87
2023-01-26T00:15:38.796Z,22.84
2023-01-26T00:16:08.933Z,22.87
2023-01-26T00:16:38.954Z,22.84
2023-01-26T00:17:08.991Z,22.88
2023-01-26T00:17:39.035Z,22.87
2023-01-26T00:18:09.065Z,22.89
2023-01-26T00:18:39.115Z,22.85
2023-01-26T00:19:09.140Z,22.88
2023-01-26T00:19:39.177Z,22.84
2023-01-26T00:20:09.601Z,22.87
2023-01-26T00:20:39.282Z,22.84
2023-01-26T00:21:09.359Z,22.87
2023-01-26T00:21:39.408Z,22.87
2023-01-26T00:22:09.491Z,22.84
2023-01-26T00:22:39.579Z,22.82
2023-01-26T00:23:09.691Z,22.82
2023-01-26T00:23:39.759Z,22.84
2023-01-26T00:24:09.857Z,22.85
2023-01-26T00:24:39.932Z,22.84
2023-01-26T00:25:10.013Z,22.87
2023-01-26T00:25:40.115Z,22.84
2023-01-26T00:26:10.192Z,22.87
2023-01-26T00:26:40.276Z,22.85
2023-01-26T00:27:10.361Z,22.82
2023-01-26T00:27:40.447Z,22.81
2023-01-26T00:28:10.524Z,22.82
2023-01-26T00:28:40.615Z,22.84
2023-01-26T00:29:10.697Z,22.84
2023-01-26T00:29:40.781Z,22.87
2023-01-26T00:30:11.201Z,22.82
2023-01-26T00:30:40.996Z,22.85
2023-01-26T00:31:11.071Z,22.84
2023-01-26T00:31:41.196Z,22.85
2023-01-26T00:32:11.252Z,22.87
2023-01-26T00:32:41.333Z,22.81
2023-01-26T00:33:11.418Z,22.85
2023-01-26T00:33:41.522Z,22.82
2023-01-26T00:34:11.595Z,22.81
2023-01-26T00:34:41.686Z,22.82
2023-01-26T00:35:11.775Z,22.81
2023-01-26T00:35:41.859Z,22.82
2023-01-26T00:36:11.945Z,22.81
2023-01-26T00:36:42.028Z,22.81
2023-01-26T00:37:12.112Z,22.82
2023-01-26T00:37:42.200Z,22.82
2023-01-26T00:38:12.289Z,22.81
2023-01-26T00:38:42.389Z,22.81
2023-01-26T00:39:12.451Z,22.79
2023-01-26T00:39:42.529Z,22.78
2023-01-26T00:40:12.865Z,22.81
2023-01-26T00:40:42.718Z,22.79
2023-01-26T00:41:12.803Z,22.79
2023-01-26T00:41:42.889Z,22.81
2023-01-26T00:42:12.973Z,22.79
2023-01-26T00:42:43.063Z,22.78
2023-01-26T00:43:13.157Z,22.79
2023-01-26T00:43:43.181Z,22.85
2023-01-26T00:44:13.266Z,22.81
2023-01-26T00:44:43.356Z,22.81
2023-01-26T00:45:13.481Z,22.81
2023-01-26T00:45:43.500Z,22.81
2023-01-26T00:46:13.505Z,22.82
2023-01-26T00:46:43.549Z,22.84
2023-01-26T00:47:13.538Z,22.79
2023-01-26T00:47:43.611Z,22.82
2023-01-26T00:48:13.700Z,22.82
2023-01-26T00:48:43.783Z,22.82
2023-01-26T00:49:13.856Z,22.82
2023-01-26T00:49:43.941Z,22.82
2023-01-26T00:50:14.343Z,22.82
2023-01-26T00:50:44.110Z,22.79
2023-01-26T00:51:14.188Z,22.81
2023-01-26T00:51:44.265Z,22.81
2023-01-26T00:52:14.354Z,22.79
2023-01-26T00:52:44.440Z,22.82
2023-01-26T00:53:14.529Z,22.82
2023-01-26T00:53:44.647Z,22.79
2023-01-26T00:54:14.704Z,22.81
2023-01-26T00:54:44.825Z,22.79
2023-01-26T00:55:14.901Z,22.82
2023-01-26T00:55:44.980Z,22.81
2023-01-26T00:56:15.063Z,22.81
2023-01-26T00:56:45.160Z,22.82
2023-01-26T00:57:15.249Z,22.84
2023-01-26T00:57:45.333Z,22.82
2023-01-26T00:58:15.422Z,22.82
2023-01-26T00:58:45.490Z,22.82
2023-01-26T00:59:15.589Z,22.81
2023-01-26T00:59:45.674Z,22.79
2023-01-26T01:00:15.773Z,22.78
2023-01-26T01:00:45.923Z,22.78
2023-01-26T01:01:15.942Z,22.78
2023-01-26T01:01:46.057Z,22.82
2023-01-26T01:02:16.101Z,22.79
2023-01-26T01:02:46.045Z,22.79
2023-01-26T01:03:16.128Z,22.78
2023-01-26T01:03:46.199Z,22.79
2023-01-26T01:04:16.287Z,22.81
2023-01-26T01:04:46.372Z,22.79
2023-01-26T01:05:16.513Z,22.82
2023-01-26T01:05:46.467Z,22.82
2023-01-26T01:06:16.561Z,22.82
2023-01-26T01:06:46.650Z,22.79
2023-01-26T01:07:16.734Z,22.84
2023-01-26T01:07:46.818Z,22.82
2023-01-26T01:08:16.902Z,22.79
2023-01-26T01:08:47.027Z,22.77
2023-01-26T01:09:17.085Z,22.79
2023-01-26T01:09:47.167Z,22.77
2023-01-26T01:10:17.210Z,22.79
2023-01-26T01:10:47.285Z,22.79
2023-01-26T01:11:17.349Z,22.77
2023-01-26T01:11:47.383Z,22.78
2023-01-26T01:12:17.431Z,22.79
2023-01-26T01:12:47.493Z,22.79
2023-01-26T01:13:17.546Z,22.78
2023-01-26T01:13:47.586Z,22.78
2023-01-26T01:14:17.621Z,22.78
2023-01-26T01:14:47.670Z,22.77
2023-01-26T01:15:17.766Z,22.79
2023-01-26T01:15:47.800Z,22.78
2023-01-26T01:16:17.895Z,22.78
2023-01-26T01:16:47.934Z,22.79
2023-01-26T01:17:17.967Z,22.81
2023-01-26T01:17:48.016Z,22.79
2023-01-26T01:18:18.049Z,22.81
2023-01-26T01:18:48.098Z,22.78
2023-01-26T01:19:18.140Z,22.79
2023-01-26T01:19:48.165Z,22.77
2023-01-26T01:20:18.234Z,22.81
2023-01-26T01:20:48.287Z,22.77
2023-01-26T01:21:18.347Z,22.81
2023-01-26T01:21:48.423Z,22.82
2023-01-26T01:22:18.510Z,22.79
2023-01-26T01:22:48.592Z,22.81
2023-01-26T01:23:18.678Z,22.81
2023-01-26T01:23:48.837Z,22.81
2023-01-26T01:24:18.945Z,22.79
2023-01-26T01:24:48.925Z,22.81
2023-01-26T01:25:19.015Z,22.82
2023-01-26T01:25:49.103Z,22.78
2023-01-26T01:26:19.182Z,22.79
2023-01-26T01:26:49.251Z,22.79
2023-01-26T01:27:19.348Z,22.79
2023-01-26T01:27:49.438Z,22.79
2023-01-26T01:28:19.517Z,22.81
2023-01-26T01:28:49.594Z,22.81
2023-01-26T01:29:19.704Z,22.79
2023-01-26T01:29:49.774Z,22.79
2023-01-26T01:30:19.860Z,22.81
2023-01-26T01:30:50.058Z,22.79
2023-01-26T01:31:20.097Z,22.78
2023-01-26T01:31:50.130Z,22.77
2023-01-26T01:32:20.108Z,22.78
2023-01-26T01:32:50.189Z,22.78
2023-01-26T01:33:20.279Z,22.78
2023-01-26T01:33:50.356Z,22.78
2023-01-26T01:34:20.439Z,22.78
2023-01-26T01:34:50.521Z,22.78
2023-01-26T01:35:20.607Z,22.81
2023-01-26T01:35:50.690Z,22.78
2023-01-26T01:36:20.766Z,22.75
2023-01-26T01:36:50.849Z,22.81
2023-01-26T01:37:20.940Z,22.79
2023-01-26T01:37:51.024Z,22.78
2023-01-26T01:38:21.103Z,22.78
2023-01-26T01:38:51.195Z,22.75
2023-01-26T01:39:21.311Z,22.77
2023-01-26T01:39:51.369Z,22.77
2023-01-26T01:40:21.449Z,22.75
2023-01-26T01:40:51.523Z,22.75
2023-01-26T01:41:21.521Z,22.75
2023-01-26T01:41:51.604Z,22.77
2023-01-26T01:42:21.694Z,22.78
2023-01-26T01:42:51.771Z,22.79
2023-01-26T01:43:21.855Z,22.78
2023-01-26T01:43:51.963Z,22.79
2023-01-26T01:44:22.036Z,22.75
2023-01-26T01:44:52.109Z,22.81
2023-01-26T01:45:22.195Z,22.75
2023-01-26T01:45:52.289Z,22.74
2023-01-26T01:46:22.413Z,22.77
2023-01-26T01:46:52.448Z,22.77
2023-01-26T01:47:22.435Z,22.72
2023-01-26T01:47:52.515Z,22.72
2023-01-26T01:48:22.602Z,22.72
2023-01-26T01:48:52.686Z,22.75
2023-01-26T01:49:22.766Z,22.75
2023-01-26T01:49:52.847Z,22.72
2023-01-26T01:50:22.951Z,22.70
2023-01-26T01:50:53.020Z,22.74
2023-01-26T01:51:23.101Z,22.70
2023-01-26T01:51:53.194Z,22.71
2023-01-26T01:52:23.260Z,22.74
2023-01-26T01:52:53.356Z,22.71
2023-01-26T01:53:23.431Z,22.71
2023-01-26T01:53:53.506Z,22.70
2023-01-26T01:54:23.584Z,22.74
2023-01-26T01:54:53.713Z,22.71
2023-01-26T01:55:23.776Z,22.72
2023-01-26T01:55:53.856Z,22.71
2023-01-26T01:56:23.938Z,22.72
2023-01-26T01:56:54.015Z,22.72
2023-01-26T01:57:24.238Z,22.74
2023-01-26T01:57:54.205Z,22.72
2023-01-26T01:58:24.289Z,22.72
2023-01-26T01:58:54.368Z,22.74
2023-01-26T01:59:24.457Z,22.74
2023-01-26T01:59:54.554Z,22.74
2023-01-26T02:00:24.628Z,22.71
2023-01-26T02:00:54.778Z,22.72
2023-01-26T02:01:24.737Z,22.71
2023-01-26T02:01:54.882Z,22.75
2023-01-26T02:02:24.843Z,22.75
2023-01-26T02:02:54.915Z,22.74
2023-01-26T02:03:24.995Z,22.75
2023-01-26T02:03:55.078Z,22.75
2023-01-26T02:04:25.164Z,22.74
2023-01-26T02:04:55.243Z,22.70
2023-01-26T02:05:25.353Z,22.71
2023-01-26T02:05:55.447Z,22.74
2023-01-26T02:06:25.462Z,22.75
2023-01-26T02:06:55.545Z,22.74
2023-01-26T02:07:25.635Z,22.71
2023-01-26T02:07:55.701Z,22.72
2023-01-26T02:08:25.785Z,22.72
2023-01-26T02:08:55.874Z,22.72
2023-01-26T02:09:25.954Z,22.72
2023-01-26T02:09:56.044Z,22.71
2023-01-26T02:10:26.141Z,22.72
2023-01-26T02:10:56.204Z,22.70
2023-01-26T02:11:26.237Z,22.70
2023-01-26T02:11:56.290Z,22.70
2023-01-26T02:12:26.318Z,22.68
2023-01-26T02:12:56.359Z,22.71
2023-01-26T02:13:26.406Z,22.71
2023-01-26T02:13:56.443Z,22.72
2023-01-26T02:15:05.984Z,22.66
2023-01-26T02:15:35.880Z,22.66
2023-01-26T02:16:07.502Z,22.66
2023-01-26T02:16:35.853Z,22.68
2023-01-26T02:17:07.867Z,22.68
2023-01-26T02:17:36.363Z,22.70
2023-01-26T02:18:05.999Z,22.68
2023-01-26T02:18:36.811Z,22.71
2023-01-26T02:19:06.227Z,22.70
2023-01-26T02:19:37.850Z,22.67
2023-01-26T02:20:06.325Z,22.67
2023-01-26T02:20:36.598Z,22.70
2023-01-26T02:21:06.523Z,22.66
2023-01-26T02:21:36.624Z,22.71
2023-01-26T02:22:08.370Z,22.68
2023-01-26T02:22:36.843Z,22.68
2023-01-26T02:23:07.335Z,22.68
2023-01-26T02:23:36.854Z,22.71
2023-01-26T02:24:06.904Z,22.71
2023-01-26T02:24:36.942Z,22.70
2023-01-26T02:25:07.036Z,22.66
2023-01-26T02:25:37.121Z,22.70
2023-01-26T02:26:07.187Z,22.71
2023-01-26T02:26:37.272Z,22.71
2023-01-26T02:27:07.374Z,22.68
2023-01-26T02:27:37.433Z,22.67
2023-01-26T02:28:07.513Z,22.68
2023-01-26T02:28:37.594Z,22.67
2023-01-26T02:29:07.669Z,22.68
2023-01-26T02:29:37.752Z,22.68
2023-01-26T02:30:08.292Z,22.66
2023-01-26T02:30:37.924Z,22.70
2023-01-26T02:31:08.051Z,22.70
2023-01-26T02:31:38.021Z,22.72
2023-01-26T02:32:07.986Z,22.71
2023-01-26T02:32:38.056Z,22.71
2023-01-26T02:33:08.131Z,22.72
2023-01-26T02:33:38.210Z,22.71
2023-01-26T02:34:08.310Z,22.71
2023-01-26T02:34:38.406Z,22.72
2023-01-26T02:35:08.555Z,22.70
2023-01-26T02:35:38.540Z,22.71
2023-01-26T02:36:08.616Z,22.71
2023-01-26T02:36:38.707Z,22.72
2023-01-26T02:37:08.795Z,22.72
2023-01-26T02:37:38.872Z,22.70
2023-01-26T02:38:08.966Z,22.70
2023-01-26T02:38:39.414Z,22.68
2023-01-26T02:39:09.175Z,22.70
2023-01-26T02:39:39.262Z,22.71
2023-01-26T02:40:09.680Z,22.71
2023-01-26T02:40:39.325Z,22.71
2023-01-26T02:41:09.431Z,22.70
2023-01-26T02:41:39.488Z,22.68
2023-01-26T02:42:09.570Z,22.68
2023-01-26T02:42:39.657Z,22.68
2023-01-26T02:43:09.767Z,22.67
2023-01-26T02:43:39.837Z,22.68
2023-01-26T02:44:09.928Z,22.67
2023-01-26T02:44:39.994Z,22.68
2023-01-26T02:45:10.127Z,22.66
2023-01-26T02:45:40.072Z,22.66
2023-01-26T02:46:10.248Z,22.66
2023-01-26T02:46:40.304Z,22.67
2023-01-26T02:47:10.274Z,22.70
2023-01-26T02:47:40.374Z,22.67
2023-01-26T02:48:10.467Z,22.70
2023-01-26T02:48:40.555Z,22.70
2023-01-26T02:49:10.644Z,22.70
2023-01-26T02:49:40.715Z,22.71
2023-01-26T02:50:11.227Z,22.70
2023-01-26T02:50:40.833Z,22.72
2023-01-26T02:51:10.910Z,22.68
2023-01-26T02:51:40.980Z,22.71
2023-01-26T02:52:11.072Z,22.70
2023-01-26T02:52:41.141Z,22.68
2023-01-26T02:53:11.234Z,22.70
2023-01-26T02:53:41.327Z,22.68
2023-01-26T02:54:11.402Z,22.68
2023-01-26T02:54:41.481Z,22.68
2023-01-26T02:55:11.568Z,22.67
2023-01-26T02:55:41.648Z,22.66
2023-01-26T02:56:11.768Z,22.68
2023-01-26T02:56:41.820Z,22.68
2023-01-26T02:57:11.908Z,22.67
2023-01-26T02:57:41.996Z,22.71
2023-01-26T02:58:12.089Z,22.71
2023-01-26T02:58:42.157Z,22.68
2023-01-26T02:59:12.235Z,22.71
2023-01-26T02:59:42.324Z,22.67
2023-01-26T03:00:12.792Z,22.67
2023-01-26T03:00:42.514Z,22.67
2023-01-26T03:01:12.521Z,22.63
2023-01-26T03:01:42.512Z,22.64
2023-01-26T03:02:12.604Z,22.66
2023-01-26T03:02:42.680Z,22.67
2023-01-26T03:03:12.763Z,22.68
2023-01-26T03:03:42.837Z,22.67
2023-01-26T03:04:12.920Z,22.68
2023-01-26T03:04:43.009Z,22.70
2023-01-26T03:05:13.100Z,22.67
2023-01-26T03:05:43.178Z,22.68
2023-01-26T03:06:13.254Z,22.66
2023-01-26T03:06:43.354Z,22.68
2023-01-26T03:07:13.422Z,22.68
2023-01-26T03:07:43.500Z,22.70
2023-01-26T03:08:13.599Z,22.71
2023-01-26T03:08:43.581Z,22.71
2023-01-26T03:09:13.673Z,22.71
2023-01-26T03:09:43.801Z,22.68
2023-01-26T03:10:13.952Z,22.70
2023-01-26T03:10:43.903Z,22.70
2023-01-26T03:11:14.006Z,22.66
2023-01-26T03:11:44.085Z,22.64
2023-01-26T03:12:14.155Z,22.68
2023-01-26T03:12:44.232Z,22.68
2023-01-26T03:13:14.321Z,22.68
2023-01-26T03:13:44.410Z,22.70
2023-01-26T03:14:14.492Z,22.70
2023-01-26T03:14:44.580Z,22.68
2023-01-26T03:15:14.683Z,22.67
2023-01-26T03:15:44.726Z,22.68
2023-01-26T03:16:14.795Z,22.64
2023-01-26T03:16:44.842Z,22.70
2023-01-26T03:17:14.879Z,22.68
2023-01-26T03:17:44.948Z,22.67
2023-01-26T03:18:14.967Z,22.67
2023-01-26T03:18:45.040Z,22.67
2023-01-26T03:19:15.057Z,22.70
2023-01-26T03:19:45.093Z,22.70
2023-01-26T03:20:15.138Z,22.71
2023-01-26T03:20:45.195Z,22.68
2023-01-26T03:21:15.228Z,22.70
2023-01-26T03:21:45.272Z,22.71
2023-01-26T03:22:15.304Z,22.71
2023-01-26T03:22:45.357Z,22.68
2023-01-26T03:23:15.399Z,22.68
2023-01-26T03:23:45.433Z,22.68
2023-01-26T03:24:15.546Z,22.66
2023-01-26T03:24:45.465Z,22.68
2023-01-26T03:25:15.600Z,22.68
2023-01-26T03:25:45.549Z,22.67
2023-01-26T03:26:15.647Z,22.67
2023-01-26T03:26:45.745Z,22.67
2023-01-26T03:27:15.804Z,22.71
2023-01-26T03:27:45.880Z,22.70
2023-01-26T03:28:15.967Z,22.68
2023-01-26T03:28:46.052Z,22.71
2023-01-26T03:29:16.134Z,22.71
2023-01-26T03:29:46.218Z,22.68
2023-01-26T03:30:16.340Z,22.68
2023-01-26T03:30:46.467Z,22.71
2023-01-26T03:31:16.493Z,22.70
2023-01-26T03:31:46.447Z,22.68
2023-01-26T03:32:16.529Z,22.66
2023-01-26T03:32:46.613Z,22.70
2023-01-26T03:33:16.703Z,22.70
2023-01-26T03:33:46.787Z,22.67
2023-01-26T03:34:16.882Z,22.66
2023-01-26T03:34:46.955Z,22.67
2023-01-26T03:35:17.090Z,22.68
2023-01-26T03:35:47.056Z,22.66
2023-01-26T03:36:17.134Z,22.68
2023-01-26T03:36:47.211Z,22.68
2023-01-26T03:37:17.304Z,22.71
2023-01-26T03:37:47.386Z,22.68
2023-01-26T03:38:17.467Z,22.68
2023-01-26T03:38:47.542Z,22.67
2023-01-26T03:39:17.624Z,22.70
2023-01-26T03:39:47.712Z,22.70
2023-01-26T03:40:17.798Z,22.68
2023-01-26T03:40:47.883Z,22.71
2023-01-26T03:41:17.980Z,22.68
2023-01-26T03:41:48.088Z,22.71
2023-01-26T03:42:18.161Z,22.71
2023-01-26T03:42:48.257Z,22.71
2023-01-26T03:43:18.340Z,22.68
2023-01-26T03:43:48.421Z,22.68
2023-01-26T03:44:18.505Z,22.70
2023-01-26T03:44:48.593Z,22.67
2023-01-26T03:45:18.692Z,22.67
2023-01-26T03:45:48.761Z,22.70
2023-01-26T03:46:18.869Z,22.68
2023-01-26T03:46:49.061Z,22.70
2023-01-26T03:47:19.044Z,22.70
2023-01-26T03:47:49.127Z,22.70
2023-01-26T03:48:19.205Z,22.70
2023-01-26T03:48:49.292Z,22.70
2023-01-26T03:49:19.386Z,22.70
2023-01-26T03:49:49.479Z,22.70
2023-01-26T03:50:19.557Z,22.70
2023-01-26T03:50:49.641Z,22.71
2023-01-26T03:51:19.722Z,22.70
2023-01-26T03:51:49.802Z,22.67
2023-01-26T03:52:19.899Z,22.70
2023-01-26T03:52:49.985Z,22.68
2023-01-26T03:53:20.064Z,22.67
2023-01-26T03:53:50.138Z,22.63
2023-01-26T03:54:20.226Z,22.64
2023-01-26T03:54:50.306Z,22.66
2023-01-26T03:55:20.425Z,22.67
2023-01-26T03:55:50.481Z,22.67
2023-01-26T03:56:20.581Z,22.64
2023-01-26T03:56:50.678Z,22.63
2023-01-26T03:57:20.722Z,22.66
2023-01-26T03:57:50.807Z,22.64
2023-01-26T03:58:20.892Z,22.67
2023-01-26T03:58:50.974Z,22.67
2023-01-26T03:59:21.051Z,22.67
2023-01-26T03:59:51.131Z,22.67
2023-01-26T04:00:21.223Z,22.68
2023-01-26T04:00:51.385Z,22.66
2023-01-26T04:01:21.406Z,22.67
2023-01-26T04:01:51.499Z,22.68
2023-01-26T04:02:21.521Z,22.68
2023-01-26T04:02:51.493Z,22.70
2023-01-26T04:03:21.579Z,22.71
2023-01-26T04:03:51.655Z,22.68
2023-01-26T04:04:21.780Z,22.66
2023-01-26T04:04:51.843Z,22.68
2023-01-26T04:05:21.922Z,22.67
2023-01-26T04:05:52.001Z,22.68
2023-01-26T04:06:22.089Z,22.66
2023-01-26T04:06:52.166Z,22.66
2023-01-26T04:07:22.254Z,22.64
2023-01-26T04:07:52.321Z,22.64
2023-01-26T04:08:22.405Z,22.64
2023-01-26T04:08:52.489Z,22.64
2023-01-26T04:09:22.565Z,22.66
2023-01-26T04:09:52.652Z,22.63
2023-01-26T04:10:22.735Z,22.63
2023-01-26T04:10:52.823Z,22.63
2023-01-26T04:11:22.901Z,22.63
2023-01-26T04:11:53.006Z,22.63
2023-01-26T04:12:23.069Z,22.64
2023-01-26T04:12:53.161Z,22.64
2023-01-26T04:13:23.261Z,22.61
2023-01-26T04:13:53.327Z,22.61
2023-01-26T04:14:23.406Z,22.63
2023-01-26T04:14:53.465Z,22.61
2023-01-26T04:15:23.522Z,22.61
2023-01-26T04:15:53.558Z,22.63
2023-01-26T04:16:23.776Z,22.60
2023-01-26T04:16:53.679Z,22.63
2023-01-26T04:17:23.716Z,22.60
2023-01-26T04:17:53.758Z,22.60
2023-01-26T04:18:23.799Z,22.63
2023-01-26T04:18:53.845Z,22.64
2023-01-26T04:19:23.882Z,22.61
2023-01-26T04:19:53.911Z,22.61
2023-01-26T04:20:23.975Z,22.63
2023-01-26T04:20:53.991Z,22.60
2023-01-26T04:21:24.039Z,22.59
2023-01-26T04:21:54.068Z,22.60
2023-01-26T04:22:24.125Z,22.57
2023-01-26T04:22:54.161Z,22.59
2023-01-26T04:23:24.191Z,22.57
2023-01-26T04:23:54.336Z,22.60
2023-01-26T04:24:24.278Z,22.59
2023-01-26T04:24:54.336Z,22.60
2023-01-26T04:25:24.457Z,22.64
2023-01-26T04:25:54.546Z,22.61
2023-01-26T04:26:24.633Z,22.61
2023-01-26T04:26:54.721Z,22.60
2023-01-26T04:27:24.822Z,22.59
2023-01-26T04:27:54.897Z,22.60
2023-01-26T04:28:24.971Z,22.60
2023-01-26T04:28:55.055Z,22.56
2023-01-26T04:29:25.128Z,22.56
2023-01-26T04:29:55.230Z,22.54
2023-01-26T04:30:25.351Z,22.56
2023-01-26T04:30:55.447Z,22.54
2023-01-26T04:31:25.612Z,22.51
2023-01-26T04:31:55.633Z,22.53
2023-01-26T04:32:25.612Z,22.50
2023-01-26T04:32:55.706Z,22.50
2023-01-26T04:33:25.773Z,22.50
2023-01-26T04:33:55.870Z,22.47
2023-01-26T04:34:25.862Z,22.49
2023-01-26T04:34:55.947Z,22.46
2023-01-26T04:35:26.066Z,22.49
2023-01-26T04:35:56.133Z,22.46
2023-01-26T04:36:26.239Z,22.46
2023-01-26T04:36:56.311Z,22.46
2023-01-26T04:37:26.386Z,22.46
2023-01-26T04:37:56.467Z,22.44
2023-01-26T04:38:26.549Z,22.46
2023-01-26T04:38:56.639Z,22.46
2023-01-26T04:39:26.753Z,22.44
2023-01-26T04:39:56.823Z,22.43
2023-01-26T04:40:26.888Z,22.42
2023-01-26T04:40:56.969Z,22.44
2023-01-26T04:41:27.161Z,22.39
2023-01-26T04:41:57.102Z,22.39
2023-01-26T04:42:27.182Z,22.37
2023-01-26T04:42:57.286Z,22.39
2023-01-26T04:43:27.349Z,22.39
2023-01-26T04:43:57.438Z,22.37
2023-01-26T04:44:27.536Z,22.36
2023-01-26T04:44:57.630Z,22.33
2023-01-26T04:45:27.698Z,22.36
2023-01-26T04:45:57.824Z,22.37
2023-01-26T04:46:27.861Z,22.33
2023-01-26T04:46:57.938Z,22.34
2023-01-26T04:47:29.413Z,22.34
2023-01-26T04:47:58.073Z,22.36
2023-01-26T04:48:28.153Z,22.37
2023-01-26T04:48:58.239Z,22.34
2023-01-26T04:49:28.321Z,22.36
2023-01-26T04:49:58.389Z,22.34
2023-01-26T04:50:28.478Z,22.36
2023-01-26T04:50:58.575Z,22.36
2023-01-26T04:51:28.663Z,22.32
2023-01-26T04:51:58.770Z,22.30
2023-01-26T04:52:28.836Z,22.34
2023-01-26T04:52:58.914Z,22.34
2023-01-26T04:53:29.010Z,22.33
2023-01-26T04:53:59.085Z,22.32
2023-01-26T04:54:29.159Z,22.33
2023-01-26T04:54:59.258Z,22.33
2023-01-26T04:55:29.327Z,22.33
2023-01-26T04:55:59.415Z,22.32
2023-01-26T04:56:29.518Z,22.27
2023-01-26T04:56:59.601Z,22.29
2023-01-26T04:57:29.696Z,22.29
2023-01-26T04:57:59.776Z,22.25
2023-01-26T04:58:29.877Z,22.27
2023-01-26T04:58:59.932Z,22.26
2023-01-26T04:59:30.018Z,22.27
2023-01-26T05:00:00.158Z,22.23
2023-01-26T05:00:30.116Z,22.20
2023-01-26T05:01:00.243Z,22.23
2023-01-26T05:01:30.204Z,22.22
2023-01-26T05:02:00.291Z,22.22
2023-01-26T05:02:30.380Z,22.22
2023-01-26T05:03:00.475Z,22.22
2023-01-26T05:03:30.554Z,22.20
2023-01-26T05:04:00.720Z,22.16
2023-01-26T05:04:30.751Z,22.17
2023-01-26T05:05:00.779Z,22.16
2023-01-26T05:05:30.838Z,22.17
2023-01-26T05:06:00.922Z,22.17
2023-01-26T05:06:31.005Z,22.16
2023-01-26T05:07:01.093Z,22.15
2023-01-26T05:07:31.177Z,22.13
2023-01-26T05:08:01.255Z,22.15
2023-01-26T05:08:31.345Z,22.15
2023-01-26T05:09:01.448Z,22.17
2023-01-26T05:09:31.525Z,22.17
2023-01-26T05:10:01.600Z,22.13
2023-01-26T05:10:31.697Z,22.15
2023-01-26T05:11:01.786Z,22.19
2023-01-26T05:11:31.883Z,22.20
2023-01-26T05:12:01.971Z,22.17
2023-01-26T05:12:32.055Z,22.17
2023-01-26T05:13:02.143Z,22.19
2023-01-26T05:13:32.240Z,22.23
2023-01-26T05:14:02.334Z,22.22
2023-01-26T05:14:32.396Z,22.25
2023-01-26T05:15:02.445Z,22.23
2023-01-26T05:15:32.493Z,22.25
2023-01-26T05:16:02.524Z,22.25
2023-01-26T05:16:32.614Z,22.25
2023-01-26T05:17:02.680Z,22.30
2023-01-26T05:17:32.713Z,22.29
2023-01-26T05:18:02.779Z,22.30
2023-01-26T05:18:32.786Z,22.34
2023-01-26T05:19:02.829Z,22.34
2023-01-26T05:19:32.859Z,22.34
2023-01-26T05:20:02.894Z,22.37
2023-01-26T05:20:32.958Z,22.36
2023-01-26T05:21:02.987Z,22.37
2023-01-26T05:21:33.116Z,22.37
2023-01-26T05:22:03.149Z,22.42
2023-01-26T05:22:33.184Z,22.40
2023-01-26T05:23:03.297Z,22.43
2023-01-26T05:23:33.350Z,22.47
2023-01-26T05:24:03.456Z,22.49
2023-01-26T05:24:33.371Z,22.50
2023-01-26T05:25:03.468Z,22.53
2023-01-26T05:25:33.453Z,22.51
2023-01-26T05:26:03.544Z,22.51
2023-01-26T05:26:33.639Z,22.56
2023-01-26T05:27:03.731Z,22.53
2023-01-26T05:27:33.804Z,22.54
2023-01-26T05:28:03.900Z,22.54
2023-01-26T05:28:34.012Z,22.56
2023-01-26T05:29:04.072Z,22.53
2023-01-26T05:29:34.141Z,22.56
2023-01-26T05:30:04.240Z,22.56
2023-01-26T05:30:34.335Z,22.59
2023-01-26T05:31:04.466Z,22.56
2023-01-26T05:31:34.476Z,22.63
2023-01-26T05:32:04.437Z,22.66
2023-01-26T05:32:34.502Z,22.64
2023-01-26T05:33:04.584Z,22.70
2023-01-26T05:33:34.667Z,22.72
2023-01-26T05:34:04.746Z,22.74
2023-01-26T05:34:34.832Z,22.74
2023-01-26T05:35:04.935Z,22.78
2023-01-26T05:35:35.014Z,22.68
2023-01-26T05:36:05.090Z,22.66
2023-01-26T05:36:35.173Z,22.60
2023-01-26T05:37:05.265Z,22.61
2023-01-26T05:37:35.292Z,22.56
2023-01-26T05:38:05.363Z,22.53
2023-01-26T05:38:35.472Z,22.56
2023-01-26T05:39:05.556Z,22.54
2023-01-26T05:39:35.647Z,22.54
2023-01-26T05:40:05.727Z,22.54
2023-01-26T05:40:35.807Z,22.54
2023-01-26T05:41:05.883Z,22.56
2023-01-26T05:41:35.970Z,22.57
2023-01-26T05:42:06.065Z,22.57
2023-01-26T05:42:36.148Z,22.59
2023-01-26T05:43:06.234Z,22.59
2023-01-26T05:43:36.302Z,22.56
2023-01-26T05:44:06.410Z,22.57
2023-01-26T05:44:36.468Z,22.56
2023-01-26T05:45:06.543Z,22.57
2023-01-26T05:45:36.680Z,22.60
2023-01-26T05:46:06.697Z,22.60
2023-01-26T05:46:36.990Z,22.63
2023-01-26T05:47:06.835Z,22.64
2023-01-26T05:47:36.931Z,22.70
2023-01-26T05:48:07.030Z,22.68
2023-01-26T05:48:37.160Z,22.68
2023-01-26T05:49:07.335Z,22.74
2023-01-26T05:49:37.284Z,22.77
2023-01-26T05:50:07.385Z,22.75
2023-01-26T05:50:37.501Z,22.75
2023-01-26T05:51:07.629Z,22.75
2023-01-26T05:51:37.614Z,22.77
2023-01-26T05:52:07.731Z,22.78
2023-01-26T05:52:37.837Z,22.78
2023-01-26T05:53:07.869Z,22.79
2023-01-26T05:53:37.885Z,22.78
2023-01-26T05:54:07.981Z,22.79
2023-01-26T05:54:37.977Z,22.78
2023-01-26T05:55:08.058Z,22.79
2023-01-26T05:55:38.155Z,22.78
2023-01-26T05:56:08.241Z,22.79
2023-01-26T05:56:38.342Z,22.79
2023-01-26T05:57:08.424Z,22.78
2023-01-26T05:57:38.514Z,22.78
2023-01-26T05:58:08.595Z,22.78
2023-01-26T05:58:38.682Z,22.77
2023-01-26T05:59:08.792Z,22.75
2023-01-26T05:59:38.868Z,22.72
2023-01-26T06:00:09.175Z,22.68
2023-01-26T06:00:39.022Z,22.70
2023-01-26T06:01:09.111Z,22.72
2023-01-26T06:01:39.188Z,22.72
2023-01-26T06:02:09.351Z,22.74
2023-01-26T06:02:39.289Z,22.74
2023-01-26T06:03:09.366Z,22.72
2023-01-26T06:03:39.459Z,22.79
2023-01-26T06:04:09.636Z,22.78
2023-01-26T06:04:39.622Z,22.81
2023-01-26T06:05:09.708Z,22.79
2023-01-26T06:05:39.784Z,22.79
2023-01-26T06:06:09.869Z,22.81
2023-01-26T06:06:39.956Z,22.81
2023-01-26T06:07:10.035Z,22.82
2023-01-26T06:07:40.137Z,22.81
2023-01-26T06:08:10.250Z,22.84
2023-01-26T06:08:40.318Z,22.84
2023-01-26T06:09:10.388Z,22.85
2023-01-26T06:09:40.472Z,22.84
2023-01-26T06:10:10.908Z,22.87
2023-01-26T06:10:40.669Z,22.85
2023-01-26T06:11:10.742Z,22.88
2023-01-26T06:11:40.826Z,22.89
2023-01-26T06:12:11.166Z,22.91
2023-01-26T06:12:41.016Z,22.91
2023-01-26T06:13:11.136Z,22.88
2023-01-26T06:13:41.190Z,22.92
2023-01-26T06:14:11.260Z,22.92
2023-01-26T06:14:41.412Z,22.92
2023-01-26T06:15:11.428Z,22.92
2023-01-26T06:15:41.464Z,22.95
2023-01-26T06:16:11.406Z,22.95
2023-01-26T06:16:41.659Z,22.95
2023-01-26T06:17:11.457Z,22.95
2023-01-26T06:17:41.510Z,22.99
2023-01-26T06:18:11.580Z,22.98
2023-01-26T06:18:41.611Z,23.01
2023-01-26T06:19:11.654Z,22.99
2023-01-26T06:19:41.745Z,22.98
2023-01-26T06:20:12.129Z,23.01
2023-01-26T06:20:44.214Z,23.05
2023-01-26T06:21:11.902Z,23.02
2023-01-26T06:21:41.954Z,23.03
2023-01-26T06:22:11.993Z,23.05
2023-01-26T06:22:42.038Z,23.05
2023-01-26T06:23:12.085Z,23.03
2023-01-26T06:23:42.136Z,23.06
2023-01-26T06:24:12.276Z,23.06
2023-01-26T06:24:42.221Z,23.05
2023-01-26T06:25:12.303Z,23.06
2023-01-26T06:25:42.380Z,23.06
2023-01-26T06:26:12.459Z,23.02
2023-01-26T06:26:42.538Z,23.01
2023-01-26T06:27:12.653Z,23.01
2023-01-26T06:27:42.818Z,23.01